createdAt,value
2024-05-09T00:01:18.721Z,48.80
2024-05-09T00:04:21.615Z,48.80
2024-05-09T00:07:23.306Z,49.20
2024-05-09T00:10:34.575Z,48.70
2024-05-09T00:13:39.254Z,48.70
2024-05-09T00:16:40.921Z,48.70
2024-05-09T00:19:42.659Z,48.90
2024-05-09T00:22:45.824Z,48.70
2024-05-09T00:25:47.604Z,48.30
2024-05-09T00:28:49.317Z,48.60
2024-05-09T00:31:51.179Z,48.60
2024-05-09T00:34:53.149Z,48.60
2024-05-09T00:37:54.892Z,48.50
2024-05-09T00:40:56.603Z,48.30
2024-05-09T00:43:58.490Z,48.50
2024-05-09T00:47:00.199Z,48.40
2024-05-09T00:50:01.953Z,48.40
2024-05-09T00:53:05.131Z,48.40
2024-05-09T00:56:06.967Z,48.30
2024-05-09T00:59:08.734Z,48.30
2024-05-09T01:02:11.820Z,48.30
2024-05-09T01:05:13.716Z,48.30
2024-05-09T01:08:15.499Z,48.30
2024-05-09T01:11:18.423Z,48.20
2024-05-09T01:14:20.572Z,49.10
2024-05-09T01:17:22.478Z,49.30
2024-05-09T01:20:36.378Z,48.20
2024-05-09T01:23:44.203Z,49.50
2024-05-09T01:26:45.887Z,48.30
2024-05-09T01:29:47.547Z,48.20
2024-05-09T01:32:49.691Z,48.10
2024-05-09T01:35:51.476Z,49.40
2024-05-09T01:38:53.147Z,49.90
2024-05-09T01:41:54.943Z,49.30
2024-05-09T01:44:56.621Z,49.00
2024-05-09T01:47:58.799Z,50.30
2024-05-09T01:51:00.726Z,49.80
2024-05-09T01:54:02.870Z,50.60
2024-05-09T01:57:04.539Z,50.60
2024-05-09T02:00:07.893Z,50.20
2024-05-09T02:03:13.646Z,51.70
2024-05-09T02:06:17.953Z,52.00
2024-05-09T02:09:19.660Z,52.50
2024-05-09T02:12:22.773Z,52.60
2024-05-09T02:15:24.541Z,52.10
2024-05-09T02:18:26.369Z,52.50
2024-05-09T02:21:28.114Z,52.30
2024-05-09T02:24:30.963Z,52.00
2024-05-09T02:27:32.789Z,51.60
2024-05-09T02:30:40.006Z,51.70
2024-05-09T02:33:43.849Z,52.70
2024-05-09T02:36:45.605Z,52.80
2024-05-09T02:39:47.260Z,51.40
2024-05-09T02:42:49.239Z,51.20
2024-05-09T02:45:50.927Z,52.50
2024-05-09T02:48:52.660Z,51.90
2024-05-09T02:51:54.364Z,50.60
2024-05-09T02:54:56.034Z,51.20
2024-05-09T02:57:57.696Z,50.90
2024-05-09T03:00:59.453Z,51.40
2024-05-09T03:04:01.429Z,51.60
2024-05-09T03:07:03.152Z,50.90
2024-05-09T03:10:07.481Z,50.80
2024-05-09T03:13:15.195Z,51.20
2024-05-09T03:16:18.073Z,52.90
2024-05-09T03:19:20.018Z,53.00
2024-05-09T03:22:22.083Z,52.40
2024-05-09T03:25:23.768Z,52.40
2024-05-09T03:28:25.418Z,52.20
2024-05-09T03:31:27.066Z,51.70
2024-05-09T03:34:28.966Z,51.80
2024-05-09T03:37:30.671Z,51.30
2024-05-09T03:40:32.428Z,52.10
2024-05-09T03:43:34.207Z,51.80
2024-05-09T03:46:35.868Z,52.40
2024-05-09T03:49:37.569Z,53.50
2024-05-09T03:52:39.533Z,52.80
2024-05-09T03:55:41.183Z,52.90
2024-05-09T03:58:42.833Z,52.10
2024-05-09T04:01:44.808Z,51.40
2024-05-09T04:04:47.085Z,51.50
2024-05-09T04:07:48.878Z,52.20
2024-05-09T04:10:50.586Z,52.60
2024-05-09T04:13:53.485Z,52.40
2024-05-09T04:16:55.259Z,52.40
2024-05-09T04:19:56.976Z,51.50
2024-05-09T04:22:58.831Z,51.00
2024-05-09T04:26:04.309Z,51.40
2024-05-09T04:29:06.089Z,50.70
2024-05-09T04:32:08.193Z,51.90
2024-05-09T04:35:10.145Z,51.70
2024-05-09T04:38:11.942Z,53.80
2024-05-09T04:41:13.757Z,53.10
2024-05-09T04:44:15.868Z,51.60
2024-05-09T04:47:17.788Z,52.10
2024-05-09T04:50:29.066Z,53.10
2024-05-09T04:53:38.110Z,52.40
2024-05-09T04:56:39.927Z,52.20
2024-05-09T04:59:41.591Z,52.10
2024-05-09T05:02:43.771Z,51.90
2024-05-09T05:05:46.177Z,52.30
2024-05-09T05:08:48.139Z,51.60
2024-05-09T05:11:49.969Z,51.90
2024-05-09T05:14:55.954Z,52.20
2024-05-09T05:17:57.951Z,52.30
2024-05-09T05:20:59.800Z,52.60
2024-05-09T05:24:02.801Z,52.90
2024-05-09T05:27:04.473Z,53.10
2024-05-09T05:30:09.551Z,53.60
2024-05-09T05:33:18.762Z,52.80
2024-05-09T05:36:21.004Z,52.60
2024-05-09T05:39:22.937Z,52.60
2024-05-09T05:42:24.769Z,52.60
2024-05-09T05:45:26.472Z,52.70
2024-05-09T05:48:28.352Z,53.00
2024-05-09T05:51:30.118Z,52.40
2024-05-09T05:54:31.910Z,52.00
2024-05-09T05:57:34.463Z,51.80
2024-05-09T06:00:39.128Z,50.70
2024-05-09T06:03:42.599Z,51.20
2024-05-09T06:06:44.400Z,50.10
2024-05-09T06:09:47.488Z,49.80
2024-05-09T06:12:51.043Z,49.90
2024-05-09T06:15:52.710Z,50.10
2024-05-09T06:18:54.523Z,49.70
2024-05-09T06:21:56.302Z,48.50
2024-05-09T06:24:57.959Z,48.00
2024-05-09T06:27:59.659Z,47.10
2024-05-09T06:31:01.327Z,46.80
2024-05-09T06:34:03.325Z,46.90
2024-05-09T06:37:05.068Z,46.70
2024-05-09T06:40:07.638Z,47.30
2024-05-09T06:43:11.566Z,45.80
2024-05-09T06:46:13.258Z,45.60
2024-05-09T06:49:15.409Z,46.10
2024-05-09T06:52:17.496Z,44.90
2024-05-09T06:55:19.166Z,44.90
2024-05-09T06:58:20.868Z,43.70
2024-05-09T07:01:22.635Z,43.50
2024-05-09T07:04:25.674Z,42.80
2024-05-09T07:07:27.504Z,43.00
2024-05-09T07:10:34.494Z,42.40
2024-05-09T07:13:37.571Z,42.10
2024-05-09T07:16:39.262Z,41.40
2024-05-09T07:19:41.105Z,41.20
2024-05-09T07:22:44.084Z,41.00
2024-05-09T07:25:46.039Z,40.40
2024-05-09T07:28:47.929Z,38.90
2024-05-09T07:31:49.671Z,39.40
2024-05-09T07:34:51.580Z,38.00
2024-05-09T07:37:53.349Z,37.20
2024-05-09T07:40:55.146Z,37.60
2024-05-09T07:43:56.966Z,36.90
2024-05-09T07:51:54.770Z,36.20
2024-05-09T07:53:39.923Z,35.10
2024-05-09T07:56:46.328Z,35.00
2024-05-09T07:59:48.121Z,35.90
2024-05-09T08:02:49.840Z,35.00
2024-05-09T08:05:52.002Z,35.10
2024-05-09T08:08:53.820Z,34.60
2024-05-09T08:11:55.497Z,34.00
2024-05-09T08:14:57.179Z,33.90
2024-05-09T08:17:59.421Z,32.30
2024-05-09T08:21:01.247Z,32.90
2024-05-09T08:24:04.099Z,33.80
2024-05-09T08:27:05.830Z,34.40
2024-05-09T08:30:10.214Z,33.00
2024-05-09T08:33:14.375Z,32.70
2024-05-09T08:36:16.140Z,33.80
2024-05-09T08:39:17.806Z,31.80
2024-05-09T08:42:19.715Z,31.80
2024-05-09T08:45:21.387Z,31.70
2024-05-09T08:48:23.317Z,33.00
2024-05-09T08:51:25.188Z,31.50
2024-05-09T08:54:27.153Z,31.70
2024-05-09T08:57:28.950Z,31.00
2024-05-09T09:00:36.827Z,31.40
2024-05-09T09:03:40.000Z,30.80
2024-05-09T09:06:42.014Z,30.30
2024-05-09T09:09:43.801Z,31.00
2024-05-09T09:12:45.892Z,31.30
2024-05-09T09:15:47.897Z,30.00
2024-05-09T09:18:51.287Z,30.40
2024-05-09T09:21:53.166Z,29.20
2024-05-09T09:24:55.077Z,29.40
2024-05-09T09:27:56.895Z,28.40
2024-05-09T09:30:58.641Z,29.00
2024-05-09T09:34:00.721Z,28.60
2024-05-09T09:37:02.512Z,28.30
2024-05-09T09:40:04.741Z,27.90
2024-05-09T09:43:08.769Z,26.90
2024-05-09T09:46:12.609Z,27.90
2024-05-09T09:49:15.053Z,27.80
2024-05-09T09:52:17.149Z,28.50
2024-05-09T09:55:19.071Z,26.60
2024-05-09T09:58:20.960Z,25.60
2024-05-09T10:01:23.000Z,26.10
2024-05-09T10:04:26.345Z,26.40
2024-05-09T10:07:28.287Z,26.60
2024-05-09T10:10:32.615Z,27.80
2024-05-09T10:13:35.395Z,24.50
2024-05-09T10:16:37.148Z,26.20
2024-05-09T10:19:38.902Z,24.40
2024-05-09T10:22:41.812Z,23.80
2024-05-09T10:25:43.504Z,24.00
2024-05-09T10:28:45.378Z,24.30
2024-05-09T10:31:47.228Z,22.20
2024-05-09T10:34:50.202Z,24.10
2024-05-09T10:37:51.873Z,21.50
2024-05-09T10:40:53.574Z,21.90
2024-05-09T10:43:55.280Z,21.60
2024-05-09T10:46:57.065Z,21.60
2024-05-09T10:49:58.873Z,21.70
2024-05-09T10:53:01.820Z,19.30
2024-05-09T10:56:03.485Z,20.20
2024-05-09T10:59:05.144Z,17.80
2024-05-09T11:02:08.030Z,18.10
2024-05-09T11:05:09.969Z,19.10
2024-05-09T11:08:11.732Z,17.40
2024-05-09T11:11:13.383Z,16.40
2024-05-09T11:14:15.238Z,15.90
2024-05-09T11:17:16.966Z,16.60
2024-05-09T11:20:26.453Z,15.20
2024-05-09T11:23:31.433Z,15.80
2024-05-09T11:26:33.108Z,15.30
2024-05-09T11:29:34.991Z,14.80
2024-05-09T11:32:36.803Z,13.90
2024-05-09T11:35:38.572Z,14.10
2024-05-09T11:38:40.233Z,14.00
2024-05-09T11:41:41.910Z,13.90
2024-05-09T11:44:43.617Z,14.10
2024-05-09T11:47:45.378Z,12.80
2024-05-09T11:50:47.100Z,12.60
2024-05-09T11:53:48.972Z,14.30
2024-05-09T11:56:51.669Z,12.20
2024-05-09T11:59:53.416Z,12.80
2024-05-09T12:02:58.879Z,12.00
2024-05-09T12:06:00.786Z,11.70
2024-05-09T12:09:02.691Z,10.40
2024-05-09T12:12:05.637Z,12.60
2024-05-09T12:15:07.311Z,10.90
2024-05-09T12:18:09.143Z,8.00
2024-05-09T12:21:11.080Z,7.90
2024-05-09T12:24:16.985Z,10.00
2024-05-09T12:27:19.986Z,8.50
2024-05-09T12:30:32.498Z,9.30
2024-05-09T12:33:39.401Z,11.70
2024-05-09T12:36:41.146Z,7.00
2024-05-09T12:39:42.827Z,8.00
2024-05-09T12:42:44.715Z,7.00
2024-05-09T12:45:46.426Z,5.00
2024-05-09T12:48:48.285Z,9.60
2024-05-09T12:51:50.043Z,8.40
2024-05-09T12:54:52.060Z,4.00
2024-05-09T12:57:53.784Z,5.70
2024-05-09T13:00:55.632Z,4.30
2024-05-09T13:03:57.766Z,5.60
2024-05-09T13:06:59.585Z,6.70
2024-05-09T13:10:01.347Z,7.30
2024-05-09T13:13:03.253Z,7.10
2024-05-09T13:16:05.019Z,9.10
2024-05-09T13:19:06.963Z,8.80
2024-05-09T13:22:08.856Z,8.40
2024-05-09T13:25:10.737Z,10.40
2024-05-09T13:28:12.546Z,12.00
2024-05-09T13:31:14.322Z,9.30
2024-05-09T13:34:16.101Z,5.90
2024-05-09T13:37:17.933Z,5.10
2024-05-09T13:40:27.263Z,5.20
2024-05-09T13:43:34.800Z,2.80
2024-05-09T13:46:36.493Z,7.80
2024-05-09T13:49:38.212Z,4.20
2024-05-09T13:52:40.197Z,5.80
2024-05-09T13:55:41.865Z,6.00
2024-05-09T13:58:43.956Z,8.10
2024-05-09T14:01:45.719Z,6.20
2024-05-09T14:04:48.949Z,4.80
2024-05-09T14:07:50.682Z,3.90
2024-05-09T14:10:53.714Z,4.40
2024-05-09T14:13:55.606Z,1.10
2024-05-09T14:16:57.361Z,1.00
2024-05-09T14:19:59.081Z,1.60
2024-05-09T14:23:01.148Z,4.80
2024-05-09T14:26:02.871Z,3.40
2024-05-09T14:29:04.532Z,1.60
2024-05-09T14:32:06.227Z,2.50
2024-05-09T14:35:08.063Z,1.00
2024-05-09T14:38:10.152Z,1.00
2024-05-09T14:41:13.397Z,1.70
2024-05-09T14:44:16.456Z,1.00
2024-05-09T14:47:18.480Z,1.00
2024-05-09T14:50:28.036Z,1.00
2024-05-09T14:53:36.695Z,1.00
2024-05-09T14:56:38.369Z,1.00
2024-05-09T14:59:40.038Z,1.00
2024-05-09T15:02:42.017Z,1.00
2024-05-09T15:05:43.781Z,1.00
2024-05-09T15:08:45.491Z,1.00
2024-05-09T15:11:47.569Z,1.00
2024-05-09T15:14:49.458Z,1.00
2024-05-09T15:17:51.552Z,1.00
2024-05-09T15:20:53.464Z,1.00
2024-05-09T15:23:55.391Z,1.00
2024-05-09T15:26:57.065Z,1.00
2024-05-09T15:30:02.083Z,1.00
2024-05-09T15:33:04.707Z,1.00
2024-05-09T15:36:07.386Z,1.00
2024-05-09T15:39:09.186Z,1.00
2024-05-09T15:42:12.313Z,1.00
2024-05-09T15:45:13.965Z,1.00
2024-05-09T15:48:15.725Z,1.00
2024-05-09T15:51:17.501Z,1.00
2024-05-09T15:54:21.565Z,1.00
2024-05-09T15:57:23.847Z,2.90
2024-05-09T16:00:36.460Z,1.70
2024-05-09T16:03:42.048Z,1.70
2024-05-09T16:06:47.872Z,3.60
2024-05-09T16:09:49.593Z,6.20
2024-05-09T16:12:52.576Z,5.50
2024-05-09T16:15:54.410Z,5.40
2024-05-09T16:18:56.295Z,4.50
2024-05-09T16:22:00.293Z,6.50
2024-05-09T16:25:02.072Z,6.70
2024-05-09T16:28:07.068Z,7.10
2024-05-09T16:31:11.475Z,7.20
2024-05-09T16:34:13.428Z,7.40
2024-05-09T16:37:15.183Z,8.00
2024-05-09T16:40:25.371Z,6.30
2024-05-09T16:43:36.075Z,11.10
2024-05-09T16:46:37.792Z,10.40
2024-05-09T16:49:39.501Z,12.00
2024-05-09T16:52:41.489Z,10.50
2024-05-09T16:55:43.176Z,10.90
2024-05-09T16:58:44.826Z,11.40
2024-05-09T17:01:46.614Z,10.90
2024-05-09T17:04:48.555Z,11.90
2024-05-09T17:07:50.732Z,12.40
2024-05-09T17:10:52.743Z,12.00
2024-05-09T17:13:54.708Z,12.30
2024-05-09T17:16:56.399Z,13.10
2024-05-09T17:19:58.063Z,13.30
2024-05-09T17:23:00.073Z,15.00
2024-05-09T17:26:01.724Z,15.10
2024-05-09T17:29:03.387Z,15.70
2024-05-09T17:32:06.021Z,14.30
2024-05-09T17:35:07.793Z,16.70
2024-05-09T17:38:09.527Z,15.70
2024-05-09T17:41:11.192Z,14.70
2024-05-09T17:44:13.153Z,15.70
2024-05-09T17:47:14.897Z,15.80
2024-05-09T17:50:23.875Z,16.30
2024-05-09T17:53:29.588Z,18.10
2024-05-09T17:56:31.246Z,16.50
2024-05-09T17:59:32.919Z,17.50
2024-05-09T18:02:36.013Z,17.70
2024-05-09T18:05:38.253Z,18.50
2024-05-09T18:08:40.159Z,19.40
2024-05-09T18:11:41.885Z,20.10
2024-05-09T18:14:43.905Z,20.60
2024-05-09T18:17:45.663Z,20.70
2024-05-09T18:20:47.560Z,21.30
2024-05-09T18:23:52.172Z,21.70
2024-05-09T18:26:53.856Z,22.60
2024-05-09T18:29:55.520Z,25.30
2024-05-09T18:32:57.576Z,26.50
2024-05-09T18:35:59.274Z,26.90
2024-05-09T18:39:00.927Z,27.30
2024-05-09T18:42:02.583Z,28.10
2024-05-09T18:45:04.260Z,28.60
2024-05-09T18:48:06.460Z,28.80
2024-05-09T18:51:08.567Z,29.30
2024-05-09T18:54:10.502Z,29.20
2024-05-09T18:57:12.179Z,29.80
2024-05-09T19:00:26.612Z,30.80
2024-05-09T19:03:35.669Z,30.30
2024-05-09T19:06:38.867Z,31.20
2024-05-09T19:09:40.932Z,31.40
2024-05-09T19:12:44.007Z,31.90
2024-05-09T19:15:45.816Z,32.10
2024-05-09T19:18:47.650Z,32.40
2024-05-09T19:21:49.408Z,33.00
2024-05-09T19:24:51.288Z,33.20
2024-05-09T19:27:53.049Z,33.80
2024-05-09T19:30:54.796Z,34.10
2024-05-09T19:33:57.837Z,33.90
2024-05-09T19:37:01.372Z,35.00
2024-05-09T19:40:05.352Z,35.00
2024-05-09T19:43:08.858Z,34.80
2024-05-09T19:46:10.732Z,35.10
2024-05-09T19:49:12.603Z,35.60
2024-05-09T19:52:14.578Z,35.30
2024-05-09T19:55:16.496Z,36.40
2024-05-09T19:58:18.375Z,36.80
2024-05-09T20:01:20.209Z,37.40
2024-05-09T20:04:23.316Z,38.10
2024-05-09T20:07:25.154Z,38.70
2024-05-09T20:10:31.810Z,38.90
2024-05-09T20:13:35.951Z,38.00
2024-05-09T20:16:37.639Z,38.60
2024-05-09T20:19:39.381Z,38.70
2024-05-09T20:22:41.255Z,38.90
2024-05-09T20:25:43.005Z,39.80
2024-05-09T20:28:46.220Z,39.70
2024-05-09T20:31:47.925Z,39.80
2024-05-09T20:34:51.634Z,40.70
2024-05-09T20:37:53.316Z,40.80
2024-05-09T20:40:55.091Z,40.50
2024-05-09T20:44:00.524Z,41.30
2024-05-09T20:47:02.302Z,40.80
2024-05-09T20:50:11.343Z,41.50
2024-05-09T20:53:19.286Z,42.00
2024-05-09T20:56:22.005Z,42.30
2024-05-09T20:59:23.709Z,42.70
2024-05-09T21:02:25.806Z,43.20
2024-05-09T21:05:27.707Z,43.20
2024-05-09T21:08:29.486Z,43.20
2024-05-09T21:11:31.150Z,43.10
2024-05-09T21:14:32.924Z,42.80
2024-05-09T21:17:34.687Z,42.80
2024-05-09T21:20:37.968Z,42.50
2024-05-09T21:23:39.780Z,42.40
2024-05-09T21:26:41.463Z,42.80
2024-05-09T21:29:43.130Z,42.70
2024-05-09T21:32:45.120Z,42.70
2024-05-09T21:35:46.857Z,42.50
2024-05-09T21:38:48.537Z,42.50
2024-05-09T21:41:50.184Z,42.40
2024-05-09T21:44:53.153Z,42.40
2024-05-09T21:47:55.124Z,42.30
2024-05-09T21:50:56.987Z,41.80
2024-05-09T21:54:00.030Z,41.40
2024-05-09T21:57:01.746Z,41.90
2024-05-09T22:00:20.348Z,41.60
2024-05-09T22:03:27.194Z,42.00
2024-05-09T22:06:28.974Z,41.80
2024-05-09T22:09:30.697Z,41.80
2024-05-09T22:12:32.712Z,41.70
2024-05-09T22:15:35.658Z,41.80
2024-05-09T22:18:38.213Z,41.70
2024-05-09T22:21:40.017Z,41.60
2024-05-09T22:24:42.029Z,42.10
2024-05-09T22:27:43.910Z,41.50
2024-05-09T22:30:47.077Z,41.60
2024-05-09T22:33:49.545Z,41.40
2024-05-09T22:36:51.341Z,41.40
2024-05-09T22:39:53.056Z,41.30
2024-05-09T22:42:55.015Z,40.80
2024-05-09T22:45:56.919Z,41.00
2024-05-09T22:48:58.737Z,41.20
2024-05-09T22:52:00.510Z,41.30
2024-05-09T22:55:02.280Z,41.50
2024-05-09T22:58:04.122Z,41.10
2024-05-09T23:01:06.005Z,41.60
2024-05-09T23:04:08.140Z,41.50
2024-05-09T23:07:10.046Z,41.70
2024-05-09T23:10:17.204Z,41.50
2024-05-09T23:13:23.833Z,42.50
2024-05-09T23:16:25.739Z,42.80
2024-05-09T23:19:27.544Z,42.20
2024-05-09T23:22:29.335Z,42.50
2024-05-09T23:25:30.985Z,42.90
2024-05-09T23:28:32.710Z,43.40
2024-05-09T23:31:34.526Z,43.50
2024-05-09T23:34:37.570Z,43.80
2024-05-09T23:37:39.273Z,43.80
2024-05-09T23:40:42.148Z,43.90
2024-05-09T23:43:44.983Z,43.70
2024-05-09T23:46:46.679Z,44.00
2024-05-09T23:49:48.400Z,44.00
2024-05-09T23:52:50.262Z,43.80
2024-05-09T23:55:52.006Z,44.10
2024-05-09T23:58:53.667Z,44.30
